Warning: Javascript must be enabled to use all the features on this page!


Page Loading - Please Wait...

Click to hideNews Bulletins
  • Have your voice heard. Have a few minutes? We're surveying users about their experience with Water Data for the Nation (WDFN). Please take a few minutes to complete our online survey.
  • See the Water Data for the Nation Blog for the latest news and updates.

Peak Streamflow for the Nation

USGS 05131500 LITTLE FORK RIVER AT LITTLEFORK, MN

Koochiching County, Minnesota
Hydrologic Unit Code 09030005
Latitude  48°23'45.00", Longitude  93°32'57.00" NAD27
Drainage area 1,700  square miles
Gage datum 1,085.02 feet above NAVD88
Output formats
Table
Graph
Tab-separated file
peakfq (watstore) format
Reselect output format
Water
Year
Date Gage
Height
(feet)
Stream-
flow
(cfs)
1910 1910-04-19 15.60 5,000
1911 1911-04-18 15.461 3,760
1912 1912-05-13 12.902 3,310
1913 1913-04-16 18.30 6,420
1914 1914-05-04 18.70 6,720
1915 1915-06-29 22.60 10,000
1916 1916-04-18 37.00 25,000
1917 1917-04-23 16.416 4,580
1929 1929-04-08 21.701 4,220
1930 1930-05-13 19.30 7,180
1931 1931-06-15 14.50 4,030
1932 1932-04-17 18.70 6,720
1933 1933-04-19 25.041 8,140
1934 1934-05-06 18.90 6,880
1935 1935-05-01 20.502 8,080
1936 1936-04-20 23.302 9,090
1937 1937-04-28 31.726 17,500
1938 1938-05-08 31.63 18,300
1939 1939-04-22   5,5001,2
1940 1940-05-02 28.62 13,300
1941 1941-06-09 28.29 14,700
1942 1942-05-04 19.78 7,360
1943 1943-06-05 23.812 10,600
1944 1944-06-07 23.70 10,500
1945 1945-03-25 27.582 10,300
1946 1946-03-26 23.202 7,600
1947 1947-05-04 24.44 11,200
1948 1948-04-18 30.562 14,500
1949 1949-04-13 22.13 9,200
1950 1950-05-11 37.00 25,000
1951 1951-05-01 27.95 14,400
1952 1952-04-17 23.36 10,300
1953 1953-06-17 19.18 6,930
1954 1954-04-19 30.30 16,700
1955 1955-04-11 20.15 7,740
1956 1956-04-21 22.362 9,410
1957 1957-04-24 29.21 15,600
1958 1958-07-05 13.12 3,160
1959 1959-07-10 16.54 5,140
1960 1960-04-17 22.721 8,500
1961 1961-04-23 22.00 9,120
1962 1962-07-10 27.05 13,500
1963 1963-04-04 24.941 8,790
1964 1964-05-09 24.84 11,600
1965 1965-04-22 25.052 11,400
1966 1966-04-19 28.33 14,700
1967 1967-04-08 19.122 6,880
1968 1968-06-10 18.511 5,790
1969 1969-04-17 32.61 20,600
1970 1970-06-14 31.081 17,300
1971 1971-04-20 28.492 15,000
1972 1972-04-21 30.052 13,700
1973 1973-04-23 13.742 3,760
1974 1974-06-08 28.13 14,700
1975 1975-04-30 30.33 17,300
1976 1976-04-07 23.971 9,600
1977 1977-09-11 21.49 8,990
1978 1978-06-01 24.332 11,400
1979 1979-04-25 32.596 20,600
1980 1979-11-02 8.262 5,600
1981 1981-06-30 8.99 6,160
1982 1982-04-20 18.091 12,800
1983 1982-10-11 8.352 5,600
1984 1984-06-10 12.84 9,590
1985 1985-04-26 22.25 19,900
1986 1986-04-30 12.562 9,350
1987 1987-05-24 9.46 6,520
1988 1988-09-22 15.11 11,800
1989 1989-04-21 17.042 13,700
1990 1990-06-06 8.26 5,480
1991 1991-07-06 8.45 5,550
1992 1992-04-22 7.392 4,690
1993 1993-07-08 9.15 6,580
1994 1994-06-30 9.88 6,900
1995 1995-05-12 5.932 3,040
1996 1996-04-23   14,3001
1997 1997-04-09   12,4001
1998 1998-05-17 7.10 4,370
1999 1999-04-09 19.791 12,0001,2
2000 2000-05-12 6.37 3,590
2001 2001-04-14 22.48 19,600
2002 2002-06-26 11.64 7,690
2003 2003-04-23 5.24 2,190
2004 2004-06-02 9.382 6,880
2005 2005-04-07 16.892 13,800
2006 2006-04-06 20.06 10,600
2007 2007-04-25 6.45 3,690
2008 2008-04-26 14.59 11,500
2009 2009-04-18 12.202 9,220
2010 2010-07-07 6.48 3,720
2011 2011-04-13 20.572 17,600
2012 2012-05-30 9.84 7,020
2013 2013-05-03 19.82 16,800
2014 2014-06-16   12,0001,2
2015 2015-05-20 9.56 6,740
2016 2016-04-27 11.162 8,2408
2017 2017-04-03 18.941,2 9,4902
2018 2018-07-13 13.12 10,100
2019 2019-04-09 14.62 11,500
2020 2020-04-10 15.272 12,200
2021 2021-04-14 11.38 8,440
?
  Peak Gage-Height Qualification Codes.
?
  Peak Streamflow Qualification Codes.